EZY89TW EGPH-EGGW
Flight info
| Callsign | EZY89TW |
|---|---|
| Flight time | 0h 59m |
| Altitude | 33000 |
| Route | GOSAM P600 FENIK L612 NAVSO DCT AKOMU DCT VAMEB UL612 LISTO |
| Aircraft | A319/M-SDE2E3FGIJ1RWXYZ/LB1 |
Departure
| Time | 2026-04-21 19:38 |
|---|---|
| Airport | Edinburgh Airport (EGPH) |
Arrival
| Time | 2026-04-21 20:38 |
|---|---|
| Airport | London Luton Airport (EGGW) |
| Time | Latitude | Longitude | Altitude | Speed | Heading |
|---|---|---|---|---|---|
| 2026-04-21 19:04 | 55.94837 | -3.35803 | 150 ft | 0 kts | 208° |
| 2026-04-21 19:26 | 55.94843 | -3.35798 | 149 ft | 2 kts | 209° |
| 2026-04-21 19:26 | 55.94860 | -3.35780 | 149 ft | 3 kts | 213° |
| 2026-04-21 19:27 | 55.94876 | -3.35759 | 149 ft | 3 kts | 224° |
| 2026-04-21 19:27 | 55.94888 | -3.35732 | 149 ft | 3 kts | 259° |
| 2026-04-21 19:27 | 55.94888 | -3.35712 | 149 ft | 1 kts | 298° |
| 2026-04-21 19:27 | 55.94888 | -3.35711 | 149 ft | 0 kts | 298° |
| 2026-04-21 19:29 | 55.94888 | -3.35712 | 149 ft | 0 kts | 298° |
| 2026-04-21 19:30 | 55.94888 | -3.35713 | 149 ft | 1 kts | 298° |
| 2026-04-21 19:31 | 55.94893 | -3.35727 | 149 ft | 2 kts | 298° |
| 2026-04-21 19:31 | 55.94902 | -3.35758 | 149 ft | 4 kts | 298° |
| 2026-04-21 19:31 | 55.94916 | -3.35805 | 149 ft | 5 kts | 300° |
| 2026-04-21 19:31 | 55.94930 | -3.35839 | 149 ft | 2 kts | 325° |
| 2026-04-21 19:32 | 55.94948 | -3.35855 | 149 ft | 4 kts | 342° |
| 2026-04-21 19:32 | 55.94980 | -3.35856 | 149 ft | 5 kts | 13° |
| 2026-04-21 19:32 | 55.95017 | -3.35836 | 149 ft | 6 kts | 9° |
| 2026-04-21 19:32 | 55.95055 | -3.35872 | 149 ft | 7 kts | 301° |
| 2026-04-21 19:33 | 55.95073 | -3.35927 | 149 ft | 8 kts | 300° |
| 2026-04-21 19:33 | 55.95106 | -3.36071 | 149 ft | 10 kts | 289° |
| 2026-04-21 19:33 | 55.95131 | -3.36200 | 149 ft | 11 kts | 288° |
| 2026-04-21 19:33 | 55.95117 | -3.36329 | 149 ft | 12 kts | 239° |
| 2026-04-21 19:34 | 55.95071 | -3.36464 | 149 ft | 14 kts | 239° |
| 2026-04-21 19:34 | 55.95020 | -3.36617 | 149 ft | 15 kts | 239° |
| 2026-04-21 19:34 | 55.94962 | -3.36786 | 149 ft | 17 kts | 239° |
| 2026-04-21 19:34 | 55.94899 | -3.36972 | 149 ft | 18 kts | 239° |
| 2026-04-21 19:35 | 55.94830 | -3.37176 | 149 ft | 20 kts | 239° |
| 2026-04-21 19:35 | 55.94682 | -3.37612 | 149 ft | 20 kts | 239° |
| 2026-04-21 19:35 | 55.94610 | -3.37823 | 149 ft | 20 kts | 239° |
| 2026-04-21 19:36 | 55.94537 | -3.38041 | 149 ft | 21 kts | 239° |
| 2026-04-21 19:36 | 55.94465 | -3.38254 | 149 ft | 20 kts | 239° |
| 2026-04-21 19:36 | 55.94396 | -3.38457 | 149 ft | 17 kts | 239° |
| 2026-04-21 19:36 | 55.94340 | -3.38624 | 149 ft | 13 kts | 238° |
| 2026-04-21 19:37 | 55.94302 | -3.38734 | 149 ft | 9 kts | 238° |
| 2026-04-21 19:37 | 55.94284 | -3.38837 | 149 ft | 9 kts | 288° |
| 2026-04-21 19:37 | 55.94329 | -3.38913 | 149 ft | 10 kts | 328° |
| 2026-04-21 19:37 | 55.94392 | -3.38965 | 149 ft | 10 kts | 358° |
| 2026-04-21 19:38 | 55.94440 | -3.38895 | 149 ft | 10 kts | 59° |
| 2026-04-21 19:38 | 55.94516 | -3.38664 | 150 ft | 57 kts | 61° |
| 2026-04-21 19:38 | 55.94726 | -3.38048 | 150 ft | 116 kts | 60° |
| 2026-04-21 19:38 | 55.95402 | -3.36038 | 869 ft | 150 kts | 60° |
| 2026-04-21 19:39 | 55.95985 | -3.34391 | 1653 ft | 165 kts | 54° |
| 2026-04-21 19:39 | 55.96812 | -3.32866 | 2187 ft | 182 kts | 44° |
| 2026-04-21 19:39 | 55.97821 | -3.31341 | 2723 ft | 199 kts | 43° |
| 2026-04-21 19:39 | 55.98926 | -3.29626 | 3283 ft | 219 kts | 44° |
| 2026-04-21 19:40 | 56.00138 | -3.27838 | 4079 ft | 232 kts | 36° |
| 2026-04-21 19:40 | 56.01653 | -3.26831 | 5122 ft | 237 kts | 11° |
| 2026-04-21 19:40 | 56.03307 | -3.27132 | 6115 ft | 247 kts | 345° |
| 2026-04-21 19:40 | 56.04794 | -3.28765 | 7028 ft | 258 kts | 318° |
| 2026-04-21 19:41 | 56.05763 | -3.31509 | 7921 ft | 267 kts | 289° |
| 2026-04-21 19:41 | 56.05941 | -3.34823 | 8795 ft | 272 kts | 261° |
| 2026-04-21 19:41 | 56.05243 | -3.37990 | 9506 ft | 280 kts | 231° |
| 2026-04-21 19:41 | 56.03894 | -3.40566 | 10199 ft | 290 kts | 220° |
| 2026-04-21 19:42 | 56.02401 | -3.43079 | 10975 ft | 300 kts | 224° |
| 2026-04-21 19:42 | 56.01255 | -3.46315 | 11598 ft | 319 kts | 247° |
| 2026-04-21 19:42 | 56.00622 | -3.50191 | 12235 ft | 332 kts | 255° |
| 2026-04-21 19:42 | 56.00125 | -3.54313 | 12826 ft | 346 kts | 257° |
| 2026-04-21 19:43 | 55.99622 | -3.58610 | 13430 ft | 358 kts | 256° |
| 2026-04-21 19:43 | 55.99072 | -3.62901 | 14239 ft | 361 kts | 255° |
| 2026-04-21 19:43 | 55.98455 | -3.67269 | 15044 ft | 364 kts | 254° |
| 2026-04-21 19:43 | 55.97800 | -3.71667 | 15827 ft | 368 kts | 253° |
| 2026-04-21 19:44 | 55.97135 | -3.76107 | 16562 ft | 372 kts | 254° |
| 2026-04-21 19:44 | 55.96475 | -3.80595 | 17300 ft | 376 kts | 254° |
| 2026-04-21 19:44 | 55.95821 | -3.85130 | 18017 ft | 379 kts | 255° |
| 2026-04-21 19:44 | 55.95165 | -3.89710 | 18707 ft | 383 kts | 255° |
| 2026-04-21 19:45 | 55.94497 | -3.94339 | 19392 ft | 386 kts | 254° |
| 2026-04-21 19:45 | 55.93769 | -3.98969 | 20042 ft | 389 kts | 249° |
| 2026-04-21 19:45 | 55.92527 | -4.03242 | 20670 ft | 389 kts | 232° |
| 2026-04-21 19:45 | 55.90646 | -4.06662 | 21280 ft | 387 kts | 214° |
| 2026-04-21 19:46 | 55.88401 | -4.09310 | 21893 ft | 388 kts | 209° |
| 2026-04-21 19:46 | 55.86078 | -4.11796 | 22471 ft | 391 kts | 208° |
| 2026-04-21 19:46 | 55.83737 | -4.14307 | 23039 ft | 394 kts | 209° |
| 2026-04-21 19:46 | 55.81406 | -4.16925 | 23593 ft | 398 kts | 211° |
| 2026-04-21 19:47 | 55.79090 | -4.19647 | 24126 ft | 401 kts | 212° |
| 2026-04-21 19:47 | 55.76769 | -4.22419 | 24637 ft | 403 kts | 208° |
| 2026-04-21 19:47 | 55.74229 | -4.24521 | 25132 ft | 403 kts | 197° |
| 2026-04-21 19:47 | 55.71487 | -4.25520 | 25598 ft | 404 kts | 183° |
| 2026-04-21 19:48 | 55.68681 | -4.25297 | 26048 ft | 405 kts | 169° |
| 2026-04-21 19:48 | 55.65976 | -4.23911 | 26476 ft | 407 kts | 156° |
| 2026-04-21 19:48 | 55.63447 | -4.21605 | 26912 ft | 410 kts | 150° |
| 2026-04-21 19:48 | 55.60974 | -4.19047 | 27332 ft | 414 kts | 149° |
| 2026-04-21 19:49 | 55.58490 | -4.16453 | 27874 ft | 414 kts | 149° |
| 2026-04-21 19:49 | 55.56023 | -4.13954 | 28407 ft | 414 kts | 150° |
| 2026-04-21 19:49 | 55.53495 | -4.11491 | 28981 ft | 414 kts | 151° |
| 2026-04-21 19:49 | 55.50952 | -4.09066 | 29503 ft | 415 kts | 151° |
| 2026-04-21 19:50 | 55.49272 | -4.07464 | 29838 ft | 416 kts | 151° |
| 2026-04-21 19:50 | 55.45865 | -4.04181 | 30498 ft | 417 kts | 151° |
| 2026-04-21 19:50 | 55.43323 | -4.01706 | 31044 ft | 417 kts | 151° |
| 2026-04-21 19:50 | 55.40784 | -3.99228 | 31563 ft | 418 kts | 151° |
| 2026-04-21 19:51 | 55.38237 | -3.96758 | 32117 ft | 417 kts | 152° |
| 2026-04-21 19:51 | 55.35689 | -3.94297 | 32610 ft | 418 kts | 152° |
| 2026-04-21 19:51 | 55.33136 | -3.91840 | 33096 ft | 418 kts | 152° |
| 2026-04-21 19:51 | 55.30577 | -3.89375 | 33502 ft | 420 kts | 152° |
| 2026-04-21 19:52 | 55.28033 | -3.86931 | 33525 ft | 414 kts | 152° |
| 2026-04-21 19:52 | 55.22977 | -3.82082 | 33529 ft | 415 kts | 152° |
| 2026-04-21 19:53 | 55.17817 | -3.77521 | 33533 ft | 416 kts | 155° |
| 2026-04-21 19:53 | 55.12610 | -3.73079 | 33531 ft | 416 kts | 155° |
| 2026-04-21 19:54 | 55.07401 | -3.68618 | 33540 ft | 417 kts | 155° |
| 2026-04-21 19:54 | 55.02193 | -3.64153 | 33546 ft | 417 kts | 155° |
| 2026-04-21 19:55 | 54.97001 | -3.59728 | 33504 ft | 418 kts | 155° |
| 2026-04-21 19:55 | 54.91768 | -3.55287 | 33463 ft | 419 kts | 155° |
| 2026-04-21 19:56 | 54.86520 | -3.50838 | 33447 ft | 420 kts | 155° |
| 2026-04-21 19:56 | 54.81258 | -3.46386 | 33445 ft | 421 kts | 156° |
| 2026-04-21 19:57 | 54.75986 | -3.41949 | 33440 ft | 422 kts | 156° |
| 2026-04-21 19:57 | 54.70691 | -3.37497 | 33438 ft | 423 kts | 156° |
| 2026-04-21 19:58 | 54.65383 | -3.33054 | 33446 ft | 424 kts | 156° |
| 2026-04-21 19:58 | 54.60967 | -3.29365 | 33480 ft | 424 kts | 156° |
| 2026-04-21 19:59 | 54.54795 | -3.24222 | 33470 ft | 424 kts | 156° |
| 2026-04-21 19:59 | 54.49477 | -3.19794 | 33493 ft | 424 kts | 156° |
| 2026-04-21 20:00 | 54.45058 | -3.16141 | 33513 ft | 424 kts | 156° |
| 2026-04-21 20:00 | 54.39736 | -3.11748 | 33502 ft | 424 kts | 156° |
| 2026-04-21 20:01 | 54.34417 | -3.07365 | 33480 ft | 424 kts | 156° |
| 2026-04-21 20:01 | 54.29091 | -3.02999 | 33473 ft | 424 kts | 156° |
| 2026-04-21 20:02 | 54.23770 | -2.98625 | 33459 ft | 424 kts | 156° |
| 2026-04-21 20:02 | 54.18442 | -2.94277 | 33424 ft | 425 kts | 156° |
| 2026-04-21 20:03 | 54.13038 | -2.90187 | 33388 ft | 425 kts | 159° |
| 2026-04-21 20:03 | 54.07598 | -2.86255 | 33383 ft | 424 kts | 159° |
| 2026-04-21 20:04 | 54.02163 | -2.82322 | 33376 ft | 425 kts | 159° |
| 2026-04-21 20:04 | 53.96756 | -2.78396 | 33375 ft | 425 kts | 159° |
| 2026-04-21 20:05 | 53.91302 | -2.74443 | 33370 ft | 426 kts | 159° |
| 2026-04-21 20:05 | 53.85826 | -2.70499 | 33366 ft | 428 kts | 159° |
| 2026-04-21 20:06 | 53.80342 | -2.66559 | 33380 ft | 428 kts | 159° |
| 2026-04-21 20:06 | 53.74855 | -2.62617 | 33409 ft | 428 kts | 159° |
| 2026-04-21 20:07 | 53.69364 | -2.58694 | 33426 ft | 428 kts | 160° |
| 2026-04-21 20:07 | 53.63874 | -2.54788 | 33439 ft | 428 kts | 159° |
| 2026-04-21 20:08 | 53.58418 | -2.50903 | 33447 ft | 428 kts | 159° |
| 2026-04-21 20:08 | 53.52927 | -2.47011 | 33456 ft | 428 kts | 160° |
| 2026-04-21 20:09 | 53.47436 | -2.43129 | 33457 ft | 428 kts | 160° |
| 2026-04-21 20:09 | 53.41946 | -2.39253 | 33483 ft | 427 kts | 160° |
| 2026-04-21 20:10 | 53.36461 | -2.35409 | 33484 ft | 427 kts | 160° |
| 2026-04-21 20:10 | 53.30960 | -2.31555 | 33464 ft | 427 kts | 160° |
| 2026-04-21 20:11 | 53.25511 | -2.27738 | 33422 ft | 428 kts | 160° |
| 2026-04-21 20:11 | 53.20014 | -2.23904 | 33382 ft | 428 kts | 160° |
| 2026-04-21 20:12 | 53.14534 | -2.19962 | 33361 ft | 429 kts | 154° |
| 2026-04-21 20:12 | 53.09584 | -2.14391 | 33371 ft | 429 kts | 145° |
| 2026-04-21 20:13 | 53.04848 | -2.08375 | 33353 ft | 426 kts | 144° |
| 2026-04-21 20:13 | 53.00069 | -2.02504 | 33361 ft | 429 kts | 146° |
| 2026-04-21 20:13 | 52.97681 | -1.99657 | 33078 ft | 426 kts | 146° |
| 2026-04-21 20:14 | 52.95275 | -1.96786 | 32423 ft | 428 kts | 146° |
| 2026-04-21 20:14 | 52.92842 | -1.93862 | 31567 ft | 436 kts | 146° |
| 2026-04-21 20:14 | 52.90385 | -1.90892 | 30990 ft | 436 kts | 146° |
| 2026-04-21 20:14 | 52.87954 | -1.87941 | 30712 ft | 433 kts | 146° |
| 2026-04-21 20:15 | 52.85517 | -1.85001 | 30474 ft | 432 kts | 146° |
| 2026-04-21 20:15 | 52.83088 | -1.82088 | 30219 ft | 431 kts | 146° |
| 2026-04-21 20:15 | 52.80655 | -1.79177 | 29816 ft | 431 kts | 146° |
| 2026-04-21 20:15 | 52.78229 | -1.76280 | 29342 ft | 429 kts | 146° |
| 2026-04-21 20:16 | 52.75812 | -1.73386 | 28862 ft | 428 kts | 146° |
| 2026-04-21 20:16 | 52.73305 | -1.70770 | 28372 ft | 425 kts | 153° |
| 2026-04-21 20:16 | 52.70707 | -1.68453 | 27914 ft | 423 kts | 155° |
| 2026-04-21 20:16 | 52.68094 | -1.66245 | 27408 ft | 422 kts | 156° |
| 2026-04-21 20:17 | 52.65471 | -1.64069 | 26894 ft | 421 kts | 155° |
| 2026-04-21 20:17 | 52.62893 | -1.61907 | 26396 ft | 421 kts | 155° |
| 2026-04-21 20:17 | 52.60302 | -1.59685 | 25908 ft | 418 kts | 155° |
| 2026-04-21 20:17 | 52.57726 | -1.57450 | 25407 ft | 415 kts | 154° |
| 2026-04-21 20:18 | 52.56036 | -1.55986 | 25077 ft | 413 kts | 155° |
| 2026-04-21 20:18 | 52.52647 | -1.53077 | 24410 ft | 409 kts | 155° |
| 2026-04-21 20:18 | 52.50132 | -1.50939 | 23913 ft | 406 kts | 155° |
| 2026-04-21 20:18 | 52.47623 | -1.48813 | 23415 ft | 404 kts | 155° |
| 2026-04-21 20:19 | 52.45134 | -1.46700 | 22918 ft | 401 kts | 154° |
| 2026-04-21 20:19 | 52.42664 | -1.44597 | 22420 ft | 399 kts | 154° |
| 2026-04-21 20:19 | 52.40208 | -1.42504 | 21922 ft | 396 kts | 154° |
| 2026-04-21 20:19 | 52.37769 | -1.40432 | 21426 ft | 394 kts | 154° |
| 2026-04-21 20:20 | 52.35341 | -1.38376 | 20927 ft | 391 kts | 154° |
| 2026-04-21 20:20 | 52.32831 | -1.36725 | 20406 ft | 387 kts | 168° |
| 2026-04-21 20:20 | 52.30210 | -1.36028 | 19910 ft | 376 kts | 175° |
| 2026-04-21 20:20 | 52.27646 | -1.35679 | 19414 ft | 364 kts | 178° |
| 2026-04-21 20:21 | 52.25147 | -1.35465 | 18839 ft | 356 kts | 179° |
| 2026-04-21 20:21 | 52.22694 | -1.35319 | 18215 ft | 350 kts | 179° |
| 2026-04-21 20:21 | 52.20274 | -1.35218 | 17590 ft | 345 kts | 179° |
| 2026-04-21 20:21 | 52.17886 | -1.35149 | 16965 ft | 341 kts | 179° |
| 2026-04-21 20:22 | 52.15529 | -1.35106 | 16340 ft | 337 kts | 179° |
| 2026-04-21 20:22 | 52.10924 | -1.35091 | 15099 ft | 330 kts | 179° |
| 2026-04-21 20:22 | 52.08643 | -1.35064 | 14517 ft | 324 kts | 173° |
| 2026-04-21 20:23 | 52.06501 | -1.34212 | 14009 ft | 313 kts | 156° |
| 2026-04-21 20:23 | 52.04543 | -1.32761 | 13521 ft | 305 kts | 151° |
| 2026-04-21 20:23 | 52.02679 | -1.31204 | 13022 ft | 298 kts | 150° |
| 2026-04-21 20:23 | 52.00865 | -1.29641 | 12522 ft | 292 kts | 149° |
| 2026-04-21 20:24 | 51.99081 | -1.28104 | 12020 ft | 287 kts | 149° |
| 2026-04-21 20:24 | 51.97332 | -1.26606 | 11519 ft | 281 kts | 149° |
| 2026-04-21 20:24 | 51.95613 | -1.25151 | 11019 ft | 276 kts | 149° |
| 2026-04-21 20:24 | 51.93918 | -1.23739 | 10521 ft | 271 kts | 149° |
| 2026-04-21 20:25 | 51.92230 | -1.22356 | 10066 ft | 272 kts | 149° |
| 2026-04-21 20:25 | 51.90544 | -1.20995 | 9606 ft | 267 kts | 149° |
| 2026-04-21 20:25 | 51.88899 | -1.19695 | 9209 ft | 258 kts | 149° |
| 2026-04-21 20:25 | 51.87310 | -1.18467 | 8831 ft | 248 kts | 149° |
| 2026-04-21 20:26 | 51.85770 | -1.17300 | 8458 ft | 242 kts | 149° |
| 2026-04-21 20:26 | 51.84255 | -1.16161 | 8082 ft | 239 kts | 149° |
| 2026-04-21 20:26 | 51.82752 | -1.15042 | 7705 ft | 236 kts | 149° |
| 2026-04-21 20:26 | 51.81279 | -1.13914 | 7325 ft | 231 kts | 144° |
| 2026-04-21 20:27 | 51.80138 | -1.12206 | 6920 ft | 221 kts | 119° |
| 2026-04-21 20:27 | 51.79665 | -1.09935 | 6482 ft | 217 kts | 94° |
| 2026-04-21 20:27 | 51.79649 | -1.07502 | 6047 ft | 217 kts | 89° |
| 2026-04-21 20:27 | 51.79716 | -1.05091 | 5726 ft | 212 kts | 86° |
| 2026-04-21 20:28 | 51.79836 | -1.02772 | 5519 ft | 202 kts | 86° |
| 2026-04-21 20:28 | 51.79952 | -1.00552 | 5317 ft | 195 kts | 86° |
| 2026-04-21 20:28 | 51.80047 | -0.98366 | 5117 ft | 194 kts | 86° |
| 2026-04-21 20:28 | 51.80135 | -0.96192 | 4919 ft | 194 kts | 86° |
| 2026-04-21 20:29 | 51.80228 | -0.94031 | 4742 ft | 192 kts | 86° |
| 2026-04-21 20:29 | 51.80324 | -0.91869 | 4569 ft | 196 kts | 86° |
| 2026-04-21 20:29 | 51.80419 | -0.89631 | 4396 ft | 201 kts | 86° |
| 2026-04-21 20:29 | 51.80506 | -0.87375 | 4219 ft | 201 kts | 88° |
| 2026-04-21 20:30 | 51.80488 | -0.85130 | 4043 ft | 199 kts | 91° |
| 2026-04-21 20:30 | 51.80428 | -0.82895 | 3867 ft | 197 kts | 91° |
| 2026-04-21 20:30 | 51.80364 | -0.80736 | 3688 ft | 188 kts | 91° |
| 2026-04-21 20:30 | 51.80335 | -0.78665 | 3507 ft | 181 kts | 85° |
| 2026-04-21 20:31 | 51.80554 | -0.76705 | 3332 ft | 174 kts | 77° |
| 2026-04-21 20:31 | 51.80852 | -0.74918 | 3194 ft | 160 kts | 75° |
| 2026-04-21 20:31 | 51.81160 | -0.73236 | 3043 ft | 154 kts | 75° |
| 2026-04-21 20:31 | 51.81456 | -0.71574 | 2867 ft | 154 kts | 75° |
| 2026-04-21 20:32 | 51.81738 | -0.69904 | 2692 ft | 155 kts | 75° |
| 2026-04-21 20:32 | 51.82024 | -0.68220 | 2516 ft | 156 kts | 75° |
| 2026-04-21 20:32 | 51.82319 | -0.66532 | 2340 ft | 157 kts | 75° |
| 2026-04-21 20:32 | 51.82616 | -0.64833 | 2165 ft | 158 kts | 75° |
| 2026-04-21 20:33 | 51.82903 | -0.63165 | 1997 ft | 149 kts | 75° |
| 2026-04-21 20:33 | 51.83182 | -0.61552 | 2000 ft | 150 kts | 74° |
| 2026-04-21 20:33 | 51.83470 | -0.59887 | 2009 ft | 159 kts | 73° |
| 2026-04-21 20:33 | 51.83765 | -0.58189 | 2002 ft | 153 kts | 73° |
| 2026-04-21 20:34 | 51.84042 | -0.56592 | 2005 ft | 142 kts | 75° |
| 2026-04-21 20:34 | 51.84297 | -0.55115 | 2008 ft | 132 kts | 74° |
| 2026-04-21 20:34 | 51.84548 | -0.53648 | 2106 ft | 139 kts | 73° |
| 2026-04-21 20:34 | 51.84811 | -0.52139 | 2064 ft | 133 kts | 73° |
| 2026-04-21 20:35 | 51.85046 | -0.50773 | 2033 ft | 121 kts | 73° |
| 2026-04-21 20:35 | 51.85269 | -0.49489 | 1932 ft | 118 kts | 73° |
| 2026-04-21 20:35 | 51.85489 | -0.48215 | 1785 ft | 117 kts | 73° |
| 2026-04-21 20:35 | 51.85709 | -0.46945 | 1631 ft | 117 kts | 73° |
| 2026-04-21 20:36 | 51.85928 | -0.45679 | 1476 ft | 117 kts | 73° |
| 2026-04-21 20:36 | 51.86146 | -0.44418 | 1321 ft | 116 kts | 73° |
| 2026-04-21 20:36 | 51.86361 | -0.43176 | 1169 ft | 116 kts | 73° |
| 2026-04-21 20:36 | 51.86577 | -0.41921 | 1015 ft | 116 kts | 73° |
| 2026-04-21 20:37 | 51.86793 | -0.40668 | 861 ft | 115 kts | 73° |
| 2026-04-21 20:37 | 51.87007 | -0.39419 | 708 ft | 115 kts | 73° |
| 2026-04-21 20:37 | 51.87223 | -0.38176 | 560 ft | 114 kts | 73° |
| 2026-04-21 20:37 | 51.87401 | -0.37155 | 541 ft | 56 kts | 74° |
| 2026-04-21 20:38 | 51.87492 | -0.36637 | 541 ft | 46 kts | 74° |
| 2026-04-21 20:38 | 51.87559 | -0.36241 | 541 ft | 29 kts | 75° |
| 2026-04-21 20:38 | 51.87595 | -0.36028 | 541 ft | 15 kts | 73° |
| 2026-04-21 20:38 | 51.87618 | -0.35929 | 541 ft | 8 kts | 52° |
| 2026-04-21 20:39 | 51.87668 | -0.35915 | 541 ft | 8 kts | 344° |
| 2026-04-21 20:39 | 51.87724 | -0.35942 | 541 ft | 7 kts | 338° |
| 2026-04-21 20:39 | 51.87763 | -0.35981 | 541 ft | 7 kts | 313° |
| 2026-04-21 20:39 | 51.87775 | -0.36064 | 541 ft | 8 kts | 257° |
| 2026-04-21 20:40 | 51.87761 | -0.36158 | 541 ft | 9 kts | 256° |
| 2026-04-21 20:40 | 51.87744 | -0.36270 | 541 ft | 11 kts | 256° |
| 2026-04-21 20:40 | 51.87721 | -0.36399 | 541 ft | 13 kts | 253° |
| 2026-04-21 20:40 | 51.87695 | -0.36548 | 541 ft | 15 kts | 254° |
| 2026-04-21 20:41 | 51.87666 | -0.36715 | 541 ft | 16 kts | 254° |
| 2026-04-21 20:41 | 51.87642 | -0.36855 | 541 ft | 10 kts | 255° |
| 2026-04-21 20:41 | 51.87670 | -0.36947 | 541 ft | 11 kts | 339° |
| 2026-04-21 20:41 | 51.87746 | -0.36986 | 541 ft | 12 kts | 342° |
| 2026-04-21 20:42 | 51.87830 | -0.37031 | 541 ft | 13 kts | 342° |
| 2026-04-21 20:42 | 51.87923 | -0.37080 | 541 ft | 14 kts | 342° |
| 2026-04-21 20:42 | 51.88016 | -0.37128 | 541 ft | 14 kts | 341° |
| 2026-04-21 20:42 | 51.88108 | -0.37178 | 541 ft | 14 kts | 341° |
| 2026-04-21 20:43 | 51.88199 | -0.37227 | 541 ft | 13 kts | 341° |
| 2026-04-21 20:43 | 51.88255 | -0.37281 | 541 ft | 9 kts | 297° |
| 2026-04-21 20:43 | 51.88248 | -0.37375 | 541 ft | 9 kts | 252° |
| 2026-04-21 20:43 | 51.88230 | -0.37467 | 541 ft | 9 kts | 253° |
| 2026-04-21 20:44 | 51.88209 | -0.37559 | 541 ft | 9 kts | 246° |
| 2026-04-21 20:44 | 51.88190 | -0.37616 | 541 ft | 9 kts | 240° |
| 2026-04-21 20:44 | 51.88160 | -0.37701 | 541 ft | 9 kts | 240° |
| 2026-04-21 20:44 | 51.88130 | -0.37773 | 541 ft | 6 kts | 230° |
| 2026-04-21 20:45 | 51.88112 | -0.37798 | 541 ft | 3 kts | 198° |
| 2026-04-21 20:45 | 51.88096 | -0.37791 | 541 ft | 2 kts | 142° |
| 2026-04-21 20:45 | 51.88085 | -0.37772 | 541 ft | 2 kts | 129° |
| 2026-04-21 20:45 | 51.88075 | -0.37752 | 541 ft | 1 kts | 128° |
| 2026-04-21 20:46 | 51.88075 | -0.37751 | 541 ft | 0 kts | 127° |